Aeroporto :
LOGIN :

Iscrizione | Disclaimer

   EN    FR    IT 

 










Sommario :    VFR   VFR Marginale   IFR   IFR Intensivo   IFR Molto Intensivo
Visibilità : 
Base nubi : 
>= 8 km
>= 3000ft
5 / 8 km
1000 / 3000 ft
1500m / 5 km
500 / 1000 ft
800 / 1500m
200 / 500 ft
< 800m
< 200 ft
Simboli :   Temporali  Nebbia  Neve Forte  Precipitazioni Forti  Vento > 20 kt
SIGMETs :   Varie  Temporali  Ghiacco  Turbolenza  Onda orograficha  Ceneri Vulcaniche






- Altitudine del aeroporto : 277 ft
- Codice IATA : JER


EGJJ - Jersey

ULTIMO METAR :
  • 300050Z AUTO 30009KT 270V330 9999 SCT040/// 12/11 Q1012

METARs OBSOLETI :
  • 300020Z AUTO 30010KT 260V340 9999 OVC043/// 13/12 Q1012
  • 292350Z AUTO 29012KT 260V320 9999 OVC044/// 13/12 Q1012
  • 292320Z AUTO 29010KT 260V330 9999 OVC043/// 13/12 Q1012
  • 292250Z AUTO 29010KT 260V320 9999 OVC042/// 13/12 Q1012
  • 292220Z AUTO 29010KT 260V330 9999 OVC045/// 13/13 Q1013
  • 292150Z AUTO 29011KT 9999 OVC046/// 13/13 Q1012
  • 292120Z AUTO 29010KT 9999 OVC047/// 13/13 Q1012
  • 292050Z AUTO 29012KT 9999 OVC046/// 13/13 Q1012

TAF TAF EGJJ
Valido dal 30 a 00 ore il 30 a 09 ore UTC


292302Z 3000/3009 31013KT 9999 FEW010 SCT015
PROB30
TEMPO 3003/3009 6000 SHRA FEW004 BKN008TCU
ATIS : +44 1534 498 073



MetMap, La meteo Aeronautica in un colpo d'occhio ! - Copyright ORBIFLY Dicembre 2007 - Disclaimer

ORBIFLY MET'MAP TEAM :

Programmazione e sviluppo : Alexandra Zaïnal
Concezione : Baudouin d'Aumeries
Supporto tecnico e logistico : Manuel Goepfert
Aiuto : Marc-Olivier Méhu
Aiuto per la traduzione : Arnaldo La Scala




FONTI E CREDITI :

   NOAA